<?xml version="1.0" encoding="UTF-8" standalone="no" ?>
<gpx xmlns="http://www.topografix.com/GPX/1/1" xmlns:xsi="http://www.w3.org/2001/XMLSchema-instance" xsi:schemaLocation="http://www.topografix.com/GPX/1/1 http://www.topografix.com/GPX/1/1/gpx.xsd" version="1.1" creator="VisuGPX - https://www.visugpx.com">
  <metadata>
    <name>04: Sentier du Monna - sentier forestier</name>
    <desc><![CDATA[04: Sentier du Monna - sentier forestier]]></desc>
  </metadata>
  <wpt lat="43.83608" lon="3.12216">
    <ele>530.1</ele>
    <name><![CDATA[PCC]]></name>
  </wpt>
  <wpt lat="43.83471" lon="3.1183">
    <ele>614.9</ele>
    <name><![CDATA[MND]]></name>
  </wpt>
  <wpt lat="43.8332" lon="3.11656">
    <ele>665.1</ele>
    <name><![CDATA[MNC]]></name>
  </wpt>
  <wpt lat="43.83236" lon="3.11511">
    <ele>681.9</ele>
    <name><![CDATA[MNX]]></name>
  </wpt>
  <wpt lat="43.83245" lon="3.11467">
    <ele>680</ele>
    <name><![CDATA[MON]]></name>
  </wpt>
  <wpt lat="43.83631" lon="3.12279">
    <ele>520</ele>
    <name><![CDATA[Accueil PdC Centre]]></name>
  </wpt>
  <wpt lat="43.83043" lon="3.11691">
    <ele>575</ele>
    <name><![CDATA[SFA]]></name>
  </wpt>
  <wpt lat="43.83028" lon="3.11214">
    <ele>630</ele>
    <name><![CDATA[SFB]]></name>
  </wpt>
  <wpt lat="43.8287" lon="3.1093">
    <ele>660.1</ele>
    <name><![CDATA[SFC]]></name>
  </wpt>
  <wpt lat="43.82502" lon="3.10689">
    <ele>710.1</ele>
    <name><![CDATA[SFD]]></name>
  </wpt>
  <wpt lat="43.82227" lon="3.1039">
    <ele>750</ele>
    <name><![CDATA[PTD]]></name>
  </wpt>
  <wpt lat="43.82268" lon="3.10293">
    <ele>750</ele>
    <name><![CDATA[PTC]]></name>
  </wpt>
  <wpt lat="43.82828" lon="3.10668">
    <ele>700</ele>
    <name><![CDATA[MNA]]></name>
  </wpt>
  <wpt lat="43.83195" lon="3.11422">
    <ele>675</ele>
    <name><![CDATA[MNB]]></name>
  </wpt>
  <trk>
    <name><![CDATA[RoTr 04 PdC]]></name>
    <trkseg>
      <trkpt lat="43.83608" lon="3.12217">
        <ele>526</ele>
        <time>2010-01-01T00:00:00Z</time>
      </trkpt>
      <trkpt lat="43.83603" lon="3.12203">
        <ele>528</ele>
        <time>2010-01-01T00:00:23Z</time>
      </trkpt>
      <trkpt lat="43.83621" lon="3.12197">
        <ele>527</ele>
        <time>2010-01-01T00:01:02Z</time>
      </trkpt>
      <trkpt lat="43.83632" lon="3.12135">
        <ele>534</ele>
        <time>2010-01-01T00:02:42Z</time>
      </trkpt>
      <trkpt lat="43.83622" lon="3.12125">
        <ele>538</ele>
        <time>2010-01-01T00:03:08Z</time>
      </trkpt>
      <trkpt lat="43.83619" lon="3.12094">
        <ele>544</ele>
        <time>2010-01-01T00:03:57Z</time>
      </trkpt>
      <trkpt lat="43.83618" lon="3.12046">
        <ele>552</ele>
        <time>2010-01-01T00:05:10Z</time>
      </trkpt>
      <trkpt lat="43.83599" lon="3.12007">
        <ele>567</ele>
        <time>2010-01-01T00:06:24Z</time>
      </trkpt>
      <trkpt lat="43.83599" lon="3.11991">
        <ele>568</ele>
        <time>2010-01-01T00:06:49Z</time>
      </trkpt>
      <trkpt lat="43.83581" lon="3.11962">
        <ele>572</ele>
        <time>2010-01-01T00:07:50Z</time>
      </trkpt>
      <trkpt lat="43.83566" lon="3.11927">
        <ele>574</ele>
        <time>2010-01-01T00:08:52Z</time>
      </trkpt>
      <trkpt lat="43.83533" lon="3.11906">
        <ele>583</ele>
        <time>2010-01-01T00:10:11Z</time>
      </trkpt>
      <trkpt lat="43.83472" lon="3.11829">
        <ele>606</ele>
        <time>2010-01-01T00:13:09Z</time>
      </trkpt>
      <trkpt lat="43.83471" lon="3.11827">
        <ele>607</ele>
        <time>2010-01-01T00:13:14Z</time>
      </trkpt>
      <trkpt lat="43.83457" lon="3.11798">
        <ele>612</ele>
        <time>2010-01-01T00:14:09Z</time>
      </trkpt>
      <trkpt lat="43.83443" lon="3.11792">
        <ele>617</ele>
        <time>2010-01-01T00:14:39Z</time>
      </trkpt>
      <trkpt lat="43.83406" lon="3.11769">
        <ele>631</ele>
        <time>2010-01-01T00:16:08Z</time>
      </trkpt>
      <trkpt lat="43.83371" lon="3.11726">
        <ele>642</ele>
        <time>2010-01-01T00:17:48Z</time>
      </trkpt>
      <trkpt lat="43.83345" lon="3.11715">
        <ele>648</ele>
        <time>2010-01-01T00:18:48Z</time>
      </trkpt>
      <trkpt lat="43.83324" lon="3.11648">
        <ele>661</ele>
        <time>2010-01-01T00:20:42Z</time>
      </trkpt>
      <trkpt lat="43.83324" lon="3.11648">
        <ele>661</ele>
        <time>2010-01-01T00:20:43Z</time>
      </trkpt>
      <trkpt lat="43.83328" lon="3.11591">
        <ele>663</ele>
        <time>2010-01-01T00:22:13Z</time>
      </trkpt>
      <trkpt lat="43.8334" lon="3.11538">
        <ele>657</ele>
        <time>2010-01-01T00:23:40Z</time>
      </trkpt>
      <trkpt lat="43.8332" lon="3.11485">
        <ele>658</ele>
        <time>2010-01-01T00:25:13Z</time>
      </trkpt>
      <trkpt lat="43.83271" lon="3.11461">
        <ele>669</ele>
        <time>2010-01-01T00:27:05Z</time>
      </trkpt>
      <trkpt lat="43.83251" lon="3.11448">
        <ele>674</ele>
        <time>2010-01-01T00:27:52Z</time>
      </trkpt>
      <trkpt lat="43.83238" lon="3.11504">
        <ele>676</ele>
        <time>2010-01-01T00:29:26Z</time>
      </trkpt>
      <trkpt lat="43.83237" lon="3.11502">
        <ele>676</ele>
        <time>2010-01-01T00:29:29Z</time>
      </trkpt>
      <trkpt lat="43.83248" lon="3.11448">
        <ele>674</ele>
        <time>2010-01-01T00:30:57Z</time>
      </trkpt>
      <trkpt lat="43.83192" lon="3.1141">
        <ele>667</ele>
        <time>2010-01-01T00:33:12Z</time>
      </trkpt>
      <trkpt lat="43.83194" lon="3.11412">
        <ele>667</ele>
        <time>2010-01-01T00:33:16Z</time>
      </trkpt>
      <trkpt lat="43.83164" lon="3.11356">
        <ele>663</ele>
        <time>2010-01-01T00:35:05Z</time>
      </trkpt>
      <trkpt lat="43.83166" lon="3.11286">
        <ele>660</ele>
        <time>2010-01-01T00:36:55Z</time>
      </trkpt>
      <trkpt lat="43.83136" lon="3.11206">
        <ele>648</ele>
        <time>2010-01-01T00:39:15Z</time>
      </trkpt>
      <trkpt lat="43.83107" lon="3.11095">
        <ele>641</ele>
        <time>2010-01-01T00:42:19Z</time>
      </trkpt>
      <trkpt lat="43.83008" lon="3.10971">
        <ele>659</ele>
        <time>2010-01-01T00:47:08Z</time>
      </trkpt>
      <trkpt lat="43.82957" lon="3.10801">
        <ele>667</ele>
        <time>2010-01-01T00:51:56Z</time>
      </trkpt>
      <trkpt lat="43.82934" lon="3.10786">
        <ele>676</ele>
        <time>2010-01-01T00:52:51Z</time>
      </trkpt>
      <trkpt lat="43.82903" lon="3.10748">
        <ele>684</ele>
        <time>2010-01-01T00:54:20Z</time>
      </trkpt>
      <trkpt lat="43.82886" lon="3.10745">
        <ele>688</ele>
        <time>2010-01-01T00:54:56Z</time>
      </trkpt>
      <trkpt lat="43.82872" lon="3.10713">
        <ele>689</ele>
        <time>2010-01-01T00:55:57Z</time>
      </trkpt>
      <trkpt lat="43.82827" lon="3.10664">
        <ele>700</ele>
        <time>2010-01-01T00:58:00Z</time>
      </trkpt>
      <trkpt lat="43.82825" lon="3.10664">
        <ele>700</ele>
        <time>2010-01-01T00:58:05Z</time>
      </trkpt>
      <trkpt lat="43.82819" lon="3.10663">
        <ele>701</ele>
        <time>2010-01-01T00:58:17Z</time>
      </trkpt>
      <trkpt lat="43.82801" lon="3.10702">
        <ele>703</ele>
        <time>2010-01-01T00:59:29Z</time>
      </trkpt>
      <trkpt lat="43.82783" lon="3.10726">
        <ele>704</ele>
        <time>2010-01-01T01:00:24Z</time>
      </trkpt>
      <trkpt lat="43.82765" lon="3.10731">
        <ele>706</ele>
        <time>2010-01-01T01:01:02Z</time>
      </trkpt>
      <trkpt lat="43.82703" lon="3.1069">
        <ele>715</ele>
        <time>2010-01-01T01:03:31Z</time>
      </trkpt>
      <trkpt lat="43.82672" lon="3.10672">
        <ele>720</ele>
        <time>2010-01-01T01:04:44Z</time>
      </trkpt>
      <trkpt lat="43.82612" lon="3.10637">
        <ele>725</ele>
        <time>2010-01-01T01:07:04Z</time>
      </trkpt>
      <trkpt lat="43.82537" lon="3.10595">
        <ele>732</ele>
        <time>2010-01-01T01:09:59Z</time>
      </trkpt>
      <trkpt lat="43.82478" lon="3.10526">
        <ele>739</ele>
        <time>2010-01-01T01:12:46Z</time>
      </trkpt>
      <trkpt lat="43.82455" lon="3.10526">
        <ele>739</ele>
        <time>2010-01-01T01:13:37Z</time>
      </trkpt>
      <trkpt lat="43.82387" lon="3.10434">
        <ele>743</ele>
        <time>2010-01-01T01:17:02Z</time>
      </trkpt>
      <trkpt lat="43.82388" lon="3.10435">
        <ele>743</ele>
        <time>2010-01-01T01:17:05Z</time>
      </trkpt>
      <trkpt lat="43.8236" lon="3.10403">
        <ele>744</ele>
        <time>2010-01-01T01:18:24Z</time>
      </trkpt>
      <trkpt lat="43.82324" lon="3.10362">
        <ele>748</ele>
        <time>2010-01-01T01:20:04Z</time>
      </trkpt>
      <trkpt lat="43.82298" lon="3.10317">
        <ele>752</ele>
        <time>2010-01-01T01:21:33Z</time>
      </trkpt>
      <trkpt lat="43.82271" lon="3.10292">
        <ele>754</ele>
        <time>2010-01-01T01:22:44Z</time>
      </trkpt>
      <trkpt lat="43.8227" lon="3.10293">
        <ele>754</ele>
        <time>2010-01-01T01:22:47Z</time>
      </trkpt>
      <trkpt lat="43.82257" lon="3.10327">
        <ele>753</ele>
        <time>2010-01-01T01:23:47Z</time>
      </trkpt>
      <trkpt lat="43.82234" lon="3.10373">
        <ele>746</ele>
        <time>2010-01-01T01:25:15Z</time>
      </trkpt>
      <trkpt lat="43.82228" lon="3.1039">
        <ele>743</ele>
        <time>2010-01-01T01:25:44Z</time>
      </trkpt>
      <trkpt lat="43.8223" lon="3.10391">
        <ele>744</ele>
        <time>2010-01-01T01:25:48Z</time>
      </trkpt>
      <trkpt lat="43.82337" lon="3.10485">
        <ele>739</ele>
        <time>2010-01-01T01:30:23Z</time>
      </trkpt>
      <trkpt lat="43.82389" lon="3.10571">
        <ele>735</ele>
        <time>2010-01-01T01:33:18Z</time>
      </trkpt>
      <trkpt lat="43.82463" lon="3.10658">
        <ele>727</ele>
        <time>2010-01-01T01:36:49Z</time>
      </trkpt>
      <trkpt lat="43.82499" lon="3.10691">
        <ele>723</ele>
        <time>2010-01-01T01:38:21Z</time>
      </trkpt>
      <trkpt lat="43.82502" lon="3.10694">
        <ele>723</ele>
        <time>2010-01-01T01:38:30Z</time>
      </trkpt>
      <trkpt lat="43.8254" lon="3.10735">
        <ele>721</ele>
        <time>2010-01-01T01:40:13Z</time>
      </trkpt>
      <trkpt lat="43.82575" lon="3.10757">
        <ele>717</ele>
        <time>2010-01-01T01:41:37Z</time>
      </trkpt>
      <trkpt lat="43.82643" lon="3.10779">
        <ele>712</ele>
        <time>2010-01-01T01:44:07Z</time>
      </trkpt>
      <trkpt lat="43.82688" lon="3.10805">
        <ele>707</ele>
        <time>2010-01-01T01:45:52Z</time>
      </trkpt>
      <trkpt lat="43.82731" lon="3.10825">
        <ele>699</ele>
        <time>2010-01-01T01:47:31Z</time>
      </trkpt>
      <trkpt lat="43.82803" lon="3.10868">
        <ele>690</ele>
        <time>2010-01-01T01:50:21Z</time>
      </trkpt>
      <trkpt lat="43.8287" lon="3.1093">
        <ele>679</ele>
        <time>2010-01-01T01:53:15Z</time>
      </trkpt>
      <trkpt lat="43.82871" lon="3.10931">
        <ele>679</ele>
        <time>2010-01-01T01:53:19Z</time>
      </trkpt>
      <trkpt lat="43.82905" lon="3.10974">
        <ele>671</ele>
        <time>2010-01-01T01:54:57Z</time>
      </trkpt>
      <trkpt lat="43.82954" lon="3.11066">
        <ele>664</ele>
        <time>2010-01-01T01:57:56Z</time>
      </trkpt>
      <trkpt lat="43.82987" lon="3.11132">
        <ele>655</ele>
        <time>2010-01-01T02:00:02Z</time>
      </trkpt>
      <trkpt lat="43.83027" lon="3.11206">
        <ele>648</ele>
        <time>2010-01-01T02:02:26Z</time>
      </trkpt>
      <trkpt lat="43.83028" lon="3.11209">
        <ele>647</ele>
        <time>2010-01-01T02:02:31Z</time>
      </trkpt>
      <trkpt lat="43.83047" lon="3.11255">
        <ele>645</ele>
        <time>2010-01-01T02:03:53Z</time>
      </trkpt>
      <trkpt lat="43.83058" lon="3.11316">
        <ele>640</ele>
        <time>2010-01-01T02:05:31Z</time>
      </trkpt>
      <trkpt lat="43.8306" lon="3.11372">
        <ele>635</ele>
        <time>2010-01-01T02:07:00Z</time>
      </trkpt>
      <trkpt lat="43.83058" lon="3.11436">
        <ele>628</ele>
        <time>2010-01-01T02:08:39Z</time>
      </trkpt>
      <trkpt lat="43.8305" lon="3.11492">
        <ele>623</ele>
        <time>2010-01-01T02:10:09Z</time>
      </trkpt>
      <trkpt lat="43.8304" lon="3.11567">
        <ele>612</ele>
        <time>2010-01-01T02:12:07Z</time>
      </trkpt>
      <trkpt lat="43.83031" lon="3.11623">
        <ele>602</ele>
        <time>2010-01-01T02:13:36Z</time>
      </trkpt>
      <trkpt lat="43.83036" lon="3.11675">
        <ele>595</ele>
        <time>2010-01-01T02:14:58Z</time>
      </trkpt>
      <trkpt lat="43.83048" lon="3.1171">
        <ele>594</ele>
        <time>2010-01-01T02:15:59Z</time>
      </trkpt>
      <trkpt lat="43.83061" lon="3.11716">
        <ele>592</ele>
        <time>2010-01-01T02:16:30Z</time>
      </trkpt>
      <trkpt lat="43.83063" lon="3.11718">
        <ele>591</ele>
        <time>2010-01-01T02:16:34Z</time>
      </trkpt>
      <trkpt lat="43.83102" lon="3.11752">
        <ele>587</ele>
        <time>2010-01-01T02:18:13Z</time>
      </trkpt>
      <trkpt lat="43.83138" lon="3.11795">
        <ele>590</ele>
        <time>2010-01-01T02:19:57Z</time>
      </trkpt>
      <trkpt lat="43.83174" lon="3.11828">
        <ele>584</ele>
        <time>2010-01-01T02:21:29Z</time>
      </trkpt>
      <trkpt lat="43.83228" lon="3.11898">
        <ele>574</ele>
        <time>2010-01-01T02:24:10Z</time>
      </trkpt>
      <trkpt lat="43.83295" lon="3.11958">
        <ele>567</ele>
        <time>2010-01-01T02:27:02Z</time>
      </trkpt>
      <trkpt lat="43.83353" lon="3.11989">
        <ele>558</ele>
        <time>2010-01-01T02:29:18Z</time>
      </trkpt>
      <trkpt lat="43.83383" lon="3.12013">
        <ele>555</ele>
        <time>2010-01-01T02:30:32Z</time>
      </trkpt>
      <trkpt lat="43.83399" lon="3.12014">
        <ele>554</ele>
        <time>2010-01-01T02:31:07Z</time>
      </trkpt>
      <trkpt lat="43.83478" lon="3.12047">
        <ele>551</ele>
        <time>2010-01-01T02:34:06Z</time>
      </trkpt>
      <trkpt lat="43.83525" lon="3.12094">
        <ele>544</ele>
        <time>2010-01-01T02:36:12Z</time>
      </trkpt>
      <trkpt lat="43.83573" lon="3.12153">
        <ele>537</ele>
        <time>2010-01-01T02:38:30Z</time>
      </trkpt>
      <trkpt lat="43.83603" lon="3.12203">
        <ele>528</ele>
        <time>2010-01-01T02:40:12Z</time>
      </trkpt>
      <trkpt lat="43.83607" lon="3.12214">
        <ele>527</ele>
        <time>2010-01-01T02:40:31Z</time>
      </trkpt>
    </trkseg>
  </trk>
</gpx>